Time;durP1;ratioP1;P1;durP2;ratioP2;P2;SDS_P1;SDS_P2;PMS_P1;PMS_P2;Temp;Humidity;BMP_temperature;BMP_pressure;BME280_temperature;BME280_humidity;BME280_pressure;Samples;Min_cycle;Max_cycle;Signal;HPM_P1;HPM_P2
2023/05/02 00:02:10;;;;;;;;;14.67;14.67;;;;;10.44;84.71;99681.66;6283874;20;3505484;-61
2023/05/02 00:04:38;;;;;;;;;15.00;12.00;;;;;10.31;85.14;99685.06;6313558;20;2800571;-60
2023/05/02 00:07:06;;;;;;;;;18.33;14.00;;;;;10.47;86.96;99689.50;6276704;20;3533601;-60
2023/05/02 00:09:34;;;;;;;;;18.33;14.67;;;;;10.38;86.14;99684.72;6306796;20;3531628;-61
2023/05/02 00:12:02;;;;;;;;;18.50;14.50;;;;;10.48;87.74;99685.91;6276148;20;2492016;-61
2023/05/02 00:14:29;;;;;;;;;24.50;18.50;;;;;10.66;85.82;99682.03;6277035;20;2490091;-60
2023/05/02 00:16:57;;;;;;;;;20.00;18.50;;;;;10.73;84.37;99675.34;6277953;20;2836123;-61
2023/05/02 00:19:26;;;;;;;;;25.00;20.00;;;;;10.61;86.37;99678.81;6282710;20;2844029;-61
2023/05/02 00:21:54;;;;;;;;;17.50;17.50;;;;;10.50;85.82;99687.50;6276743;20;2835771;-60
2023/05/02 00:24:22;;;;;;;;;20.00;18.00;;;;;10.50;86.32;99678.59;6281088;20;2833779;-60
2023/05/02 00:26:50;;;;;;;;;19.00;16.00;;;;;10.30;88.82;99675.31;6278352;20;3558651;-61
2023/05/02 00:29:19;;;;;;;;;13.67;13.67;;;;;10.11;90.54;99683.56;6276934;20;3508786;-61
2023/05/02 00:31:47;;;;;;;;;13.00;12.00;;;;;10.23;90.88;99683.78;6310861;20;3515914;-61
2023/05/02 00:34:15;;;;;;;;;11.00;9.00;;;;;10.20;90.73;99684.84;6311179;20;2761735;-60
2023/05/02 00:36:42;;;;;;;;;15.00;13.00;;;;;10.13;91.28;99675.41;6278462;20;2804481;-61
2023/05/02 00:39:10;;;;;;;;;13.00;12.00;;;;;10.00;92.56;99677.09;6280518;20;2788852;-61
2023/05/02 00:41:38;;;;;;;;;16.00;15.50;;;;;10.08;92.96;99683.75;6312080;20;2759964;-61
2023/05/02 00:44:07;;;;;;;;;19.33;17.00;;;;;10.13;91.08;99682.59;6312257;20;3562762;-61
2023/05/02 00:46:35;;;;;;;;;14.33;14.00;;;;;10.18;89.67;99680.50;6276039;20;3533592;-61
2023/05/02 00:49:04;;;;;;;;;15.33;15.33;;;;;10.11;89.63;99688.94;6277444;20;3533713;-61
2023/05/02 00:51:35;;;;;;;;;15.33;14.00;;;;;9.90;91.43;99684.84;6308020;20;3531526;-61
2023/05/02 00:54:04;;;;;;;;;17.00;16.00;;;;;9.89;90.72;99692.00;6312275;20;3552499;-61
2023/05/02 00:56:33;;;;;;;;;17.33;13.00;;;;;9.97;90.78;99677.28;6276333;20;3531540;-61
2023/05/02 00:59:01;;;;;;;;;13.00;11.00;;;;;9.88;91.46;99682.25;6309862;20;2789860;-61
2023/05/02 01:01:30;;;;;;;;;20.00;13.00;;;;;9.65;92.47;99688.09;6311350;20;2799342;-61
2023/05/02 01:04:31;;;;;;;;;12.50;9.00;;;;;9.56;93.20;99688.63;6277061;20;2772694;-61
2023/05/02 01:07:23;;;;;;;;;16.50;12.50;;;;;9.54;93.93;99683.34;6275906;20;2806526;-61
2023/05/02 01:10:09;;;;;;;;;12.00;12.00;;;;;9.59;93.47;99680.41;6279500;20;2798326;-61
2023/05/02 01:13:03;;;;;;;;;14.50;12.00;;;;;9.28;94.89;99686.66;6313891;20;2791222;-61
2023/05/02 01:15:34;;;;;;;;;14.00;12.50;;;;;9.21;95.69;99686.97;6278650;20;2794153;-61
2023/05/02 01:18:03;;;;;;;;;18.00;12.00;;;;;8.92;96.83;99688.59;6280838;20;2800314;-61
2023/05/02 01:20:37;;;;;;;;;12.00;12.00;;;;;9.17;95.94;99681.88;6277141;20;2794109;-61
2023/05/02 01:23:32;;;;;;;;;13.33;12.00;;;;;9.05;95.93;99682.56;6277046;20;3529390;-61
2023/05/02 01:26:28;;;;;;;;;15.50;15.50;;;;;8.82;96.80;99683.81;6307580;20;2822162;-61
2023/05/02 01:28:58;;;;;;;;;23.00;20.00;;;;;8.70;97.13;99675.50;6277219;20;2844038;-61
2023/05/02 01:31:37;;;;;;;;;25.50;21.00;;;;;8.65;97.01;99671.34;6280631;20;2834662;-62
2023/05/02 01:34:09;;;;;;;;;28.00;24.00;;;;;8.88;96.68;99670.97;6275896;20;2840873;-61
2023/05/02 01:36:49;;;;;;;;;19.00;17.00;;;;;8.92;95.31;99680.56;6280320;20;2500299;-61
2023/05/02 01:39:23;;;;;;;;;27.00;21.50;;;;;8.87;95.61;99676.41;6279318;20;2500340;-61
2023/05/02 01:41:55;;;;;;;;;20.00;18.50;;;;;8.82;95.30;99684.72;6277499;20;2818066;-61
2023/05/02 01:44:24;;;;;;;;;23.00;21.00;;;;;8.90;95.07;99668.19;6277144;20;2500591;-61
2023/05/02 01:46:54;;;;;;;;;25.00;25.00;;;;;8.59;95.88;99671.69;6275450;20;2839977;-61
2023/05/02 01:49:24;;;;;;;;;23.00;22.00;;;;;8.67;96.40;99672.16;6275193;20;2500340;-61
2023/05/02 01:51:52;;;;;;;;;24.67;21.00;;;;;8.47;95.16;99662.50;6276548;20;3580599;-61
2023/05/02 01:54:23;;;;;;;;;23.50;20.00;;;;;8.35;96.38;99664.84;6281113;20;2844220;-61
2023/05/02 01:56:51;;;;;;;;;31.00;21.00;;;;;8.48;97.04;99664.25;6276366;20;2492005;-62
2023/05/02 01:59:22;;;;;;;;;20.00;18.00;;;;;8.47;96.54;99671.38;6280156;20;3565892;-61
2023/05/02 02:01:52;;;;;;;;;21.00;21.00;;;;;8.62;97.00;99667.03;6282433;20;2831549;-61
2023/05/02 02:04:21;;;;;;;;;22.00;20.00;;;;;8.51;95.55;99670.28;6281559;20;2500245;-61
2023/05/02 02:07:03;;;;;;;;;27.00;21.00;;;;;8.47;95.65;99666.03;6279740;20;2846096;-60
2023/05/02 02:09:31;;;;;;;;;19.67;17.33;;;;;8.47;93.65;99658.00;6279282;20;3558726;-60
2023/05/02 02:12:23;;;;;;;;;13.00;12.67;;;;;8.55;93.72;99673.66;6313410;20;3538909;-60
2023/05/02 02:14:59;;;;;;;;;21.00;14.50;;;;;8.44;93.32;99668.88;6311803;20;2814037;-61
2023/05/02 02:18:04;;;;;;;;;13.50;12.00;;;;;8.31;94.56;99667.75;6283998;20;2807570;-61
2023/05/02 02:20:34;;;;;;;;;14.20;12.60;;;;;8.41;95.27;99674.41;6304281;20;2810752;-60
2023/05/02 02:23:07;;;;;;;;;15.00;14.50;;;;;8.34;95.47;99663.09;6284398;20;2802403;-60
2023/05/02 02:25:36;;;;;;;;;13.00;13.00;;;;;8.52;94.04;99666.66;6284390;20;2810799;-60
2023/05/02 02:28:04;;;;;;;;;14.00;12.50;;;;;8.60;93.71;99668.91;6283699;20;2794165;-60
2023/05/02 02:30:33;;;;;;;;;15.67;14.00;;;;;8.51;93.64;99664.94;6284649;20;3543026;-60
2023/05/02 02:33:00;;;;;;;;;12.50;11.50;;;;;8.39;93.80;99660.22;6313264;20;2790952;-60
2023/05/02 02:35:37;;;;;;;;;13.00;12.00;;;;;8.48;93.80;99654.41;6281878;20;2794191;-60
2023/05/02 02:38:30;;;;;;;;;15.00;12.00;;;;;8.32;93.75;99656.09;6313564;20;2818065;-60
2023/05/02 02:41:34;;;;;;;;;13.50;12.50;;;;;8.38;93.89;99653.13;6282248;20;2797219;-60
2023/05/02 02:44:45;;;;;;;;;15.00;15.00;;;;;7.99;93.86;99656.06;6279476;20;2806629;-60
2023/05/02 02:47:40;;;;;;;;;12.00;8.50;;;;;8.23;92.61;99653.94;6313756;20;2768041;-60
2023/05/02 02:50:18;;;;;;;;;15.33;13.50;;;;;8.11;92.77;99656.31;6305587;20;2815937;-60
2023/05/02 02:53:08;;;;;;;;;14.67;14.67;;;;;8.19;93.38;99649.66;6312908;20;3539840;-60
2023/05/02 02:55:51;;;;;;;;;16.50;14.00;;;;;8.10;93.54;99656.38;6282005;20;2813016;-60
2023/05/02 02:58:53;;;;;;;;;12.33;11.00;;;;;8.07;93.01;99660.06;6278351;20;2792169;-60
2023/05/02 03:01:26;;;;;;;;;14.00;13.33;;;;;8.04;93.34;99657.56;6310299;20;3541959;-60
2023/05/02 03:03:56;;;;;;;;;15.00;15.00;;;;;8.32;93.51;99656.09;6311007;20;2806624;-60
2023/05/02 03:06:24;;;;;;;;;16.00;13.50;;;;;8.33;94.35;99649.84;6282959;20;2815052;-60
2023/05/02 03:08:52;;;;;;;;;18.50;16.00;;;;;8.00;93.24;99652.44;6279640;20;2822305;-60
2023/05/02 03:11:20;;;;;;;;;14.67;12.00;;;;;8.12;93.69;99644.66;6285033;20;2791006;-60
2023/05/02 03:13:48;;;;;;;;;13.33;13.00;;;;;7.96;93.75;99645.53;6313107;20;3546128;-60
2023/05/02 03:16:33;;;;;;;;;13.33;13.33;;;;;8.23;92.43;99654.78;6277966;20;3538832;-59
2023/05/02 03:19:03;;;;;;;;;15.00;13.67;;;;;8.42;92.15;99643.16;6312844;20;3540896;-60
2023/05/02 03:21:32;;;;;;;;;17.00;14.50;;;;;8.27;93.30;99650.16;6315177;20;2807662;-60
2023/05/02 03:24:02;;;;;;;;;16.00;14.00;;;;;8.19;92.87;99653.25;6284124;20;2801739;-60
2023/05/02 03:26:30;;;;;;;;;15.67;13.67;;;;;8.17;93.44;99643.56;6281181;20;3543981;-60
2023/05/02 03:28:59;;;;;;;;;19.33;15.67;;;;;8.35;92.06;99648.81;6311484;20;3551477;-60
2023/05/02 03:31:27;;;;;;;;;17.67;17.00;;;;;8.52;90.35;99649.75;6283369;20;3553368;-60
2023/05/02 03:33:54;;;;;;;;;20.00;14.00;;;;;8.18;92.13;99654.16;6311374;20;2822195;-60
2023/05/02 03:36:22;;;;;;;;;17.00;15.33;;;;;8.14;92.75;99658.81;6280841;20;3535826;-60
2023/05/02 03:38:50;;;;;;;;;19.50;14.00;;;;;7.82;94.41;99654.25;6283770;20;2823320;-60
2023/05/02 03:41:19;;;;;;;;;15.67;12.33;;;;;8.23;93.95;99660.13;6280731;20;3527493;-60
2023/05/02 03:43:47;;;;;;;;;19.00;17.00;;;;;8.29;92.76;99665.19;6278406;20;2492008;-60
2023/05/02 03:46:14;;;;;;;;;19.00;14.50;;;;;7.88;93.50;99661.97;6282906;20;2811874;-60
2023/05/02 03:48:45;;;;;;;;;20.33;18.00;;;;;7.94;94.67;99667.00;6279631;20;3560707;-60
2023/05/02 03:51:12;;;;;;;;;18.00;14.00;;;;;8.12;93.47;99667.88;6290352;20;2810198;-60
2023/05/02 03:53:41;;;;;;;;;17.33;15.33;;;;;8.04;93.17;99670.94;6281405;20;3542015;-60
2023/05/02 03:56:09;;;;;;;;;15.33;14.00;;;;;8.04;92.97;99670.94;6308075;20;3532581;-60
2023/05/02 03:58:37;;;;;;;;;19.00;15.33;;;;;8.00;92.96;99672.03;6312169;20;3559632;-60
2023/05/02 04:01:14;;;;;;;;;13.00;13.00;;;;;8.17;93.39;99681.00;6282756;20;2804911;-60
2023/05/02 04:03:42;;;;;;;;;14.00;14.00;;;;;8.57;89.34;99677.97;6281092;20;3541921;-60
2023/05/02 04:06:11;;;;;;;;;16.33;16.00;;;;;8.54;91.09;99688.00;6310175;20;3554447;-60
2023/05/02 04:08:40;;;;;;;;;14.67;13.33;;;;;8.62;91.56;99690.25;6310492;20;3537087;-60
2023/05/02 04:11:07;;;;;;;;;16.00;14.00;;;;;8.76;91.15;99693.03;6310611;20;2811816;-60
2023/05/02 04:13:35;;;;;;;;;16.67;12.00;;;;;8.88;90.50;99695.06;6282153;20;3527431;-60
2023/05/02 04:16:03;;;;;;;;;13.00;13.00;;;;;9.18;88.94;99692.50;6308075;20;2802703;-60
2023/05/02 04:18:31;;;;;;;;;13.00;10.33;;;;;9.75;86.51;99697.31;6278281;20;3515906;-60
2023/05/02 04:20:59;;;;;;;;;17.00;15.00;;;;;10.44;81.95;99693.25;6310355;20;2817044;-60
2023/05/02 04:23:27;;;;;;;;;9.00;9.00;;;;;10.12;82.76;99697.84;6298045;20;1817211;-60
2023/05/02 04:25:55;;;;;;;;;12.00;10.33;;;;;10.00;82.65;99693.19;6311101;20;3513826;-60
2023/05/02 04:28:23;;;;;;;;;13.00;11.00;;;;;9.92;82.06;99703.53;6307240;20;2790056;-60
2023/05/02 04:30:52;;;;;;;;;12.00;11.00;;;;;9.71;82.88;99693.09;6309154;20;3523277;-60
2023/05/02 04:33:19;;;;;;;;;14.50;14.00;;;;;9.71;83.13;99711.00;6309949;20;2814916;-60
2023/05/02 04:35:46;;;;;;;;;13.00;11.00;;;;;9.72;83.10;99708.22;6281209;20;2794058;-60
2023/05/02 04:38:15;;;;;;;;;19.00;15.33;;;;;9.83;83.06;99716.50;6280978;20;3540997;-60
2023/05/02 04:40:43;;;;;;;;;15.00;12.67;;;;;10.21;80.45;99710.69;6309429;20;3533676;-60
2023/05/02 04:43:10;;;;;;;;;16.00;14.50;;;;;11.71;75.50;99710.31;6275825;20;2811827;-61
2023/05/02 04:45:38;;;;;;;;;16.00;13.00;;;;;11.64;73.65;99713.44;6273265;20;2794148;-62
2023/05/02 04:48:05;;;;;;;;;18.50;17.50;;;;;11.75;74.15;99714.56;6280119;20;2494038;-61
2023/05/02 04:50:33;;;;;;;;;17.67;13.00;;;;;12.08;72.54;99725.78;6275792;20;3546244;-61
2023/05/02 04:53:01;;;;;;;;;14.00;14.00;;;;;12.78;70.11;99721.91;6280822;20;2807677;-62
2023/05/02 04:55:29;;;;;;;;;16.50;16.50;;;;;13.44;66.18;99721.75;6277521;20;2496074;-61
2023/05/02 04:57:57;;;;;;;;;16.33;16.33;;;;;14.75;60.44;99734.41;6276852;20;3557610;-62
2023/05/02 05:00:25;;;;;;;;;15.67;14.33;;;;;13.75;62.80;99729.31;6282789;20;2812870;-62
2023/05/02 05:02:53;;;;;;;;;15.67;12.33;;;;;13.13;65.13;99730.16;6307138;20;3532673;-62
2023/05/02 05:05:21;;;;;;;;;14.67;13.00;;;;;13.52;64.80;99735.53;6277135;20;3522123;-62
2023/05/02 05:07:51;;;;;;;;;16.33;15.00;;;;;14.39;61.68;99741.63;6309569;20;3548480;-61
2023/05/02 05:10:18;;;;;;;;;17.50;11.00;;;;;13.85;63.30;99737.59;6316197;20;2810676;-61
2023/05/02 05:12:48;;;;;;;;;14.40;13.00;;;;;12.66;68.74;99739.75;6309081;20;2802583;-61
2023/05/02 05:15:16;;;;;;;;;14.50;13.00;;;;;13.23;67.77;99733.09;6285603;20;3466974;-62
2023/05/02 05:17:43;;;;;;;;;17.00;14.00;;;;;13.86;66.14;99741.16;6318847;20;2803568;-61
2023/05/02 05:20:12;;;;;;;;;14.67;13.00;;;;;15.92;58.89;99745.69;6285038;20;3527437;-62
2023/05/02 05:22:41;;;;;;;;;17.00;15.00;;;;;15.13;59.97;99745.75;6284032;20;3550232;-62
2023/05/02 05:25:09;;;;;;;;;14.00;12.00;;;;;13.95;65.47;99744.00;6286437;20;2803630;-62
2023/05/02 05:27:38;;;;;;;;;12.67;12.67;;;;;14.98;63.06;99752.41;6280692;20;3517645;-61
2023/05/02 05:30:10;;;;;;;;;24.50;22.50;;;;;15.39;60.91;99750.91;6313710;20;2843162;-62
2023/05/02 05:32:39;;;;;;;;;23.50;18.00;;;;;15.51;59.72;99746.38;6283462;20;2841969;-62
2023/05/02 05:35:07;;;;;;;;;16.50;15.50;;;;;15.40;60.21;99755.34;6285288;20;2815941;-61
2023/05/02 05:37:38;;;;;;;;;14.67;12.67;;;;;15.42;60.08;99756.06;6282503;20;3529547;-62
2023/05/02 05:40:08;;;;;;;;;15.00;15.00;;;;;14.48;64.45;99757.13;6315404;20;3562802;-61
2023/05/02 05:42:35;;;;;;;;;16.00;16.00;;;;;14.87;64.67;99757.75;6282029;20;2496263;-61
2023/05/02 05:45:04;;;;;;;;;16.67;15.00;;;;;14.57;66.24;99761.88;6284409;20;3548187;-62
2023/05/02 05:47:32;;;;;;;;;15.33;15.33;;;;;14.16;68.16;99763.13;6314388;20;3551284;-61
2023/05/02 05:50:00;;;;;;;;;15.00;15.00;;;;;13.80;70.45;99767.63;6282231;20;2819056;-62
2023/05/02 05:52:28;;;;;;;;;14.00;14.00;;;;;13.92;71.08;99770.38;6288824;20;2801423;-62
2023/05/02 05:54:57;;;;;;;;;19.00;13.00;;;;;14.30;71.01;99772.03;6283918;20;3522268;-62
2023/05/02 05:57:24;;;;;;;;;18.00;14.00;;;;;15.21;67.72;99774.03;6284383;20;2498323;-62
2023/05/02 05:59:51;;;;;;;;;17.50;12.00;;;;;14.91;67.89;99775.47;6288199;20;2790010;-62
2023/05/02 06:02:19;;;;;;;;;15.50;15.50;;;;;15.56;66.56;99779.31;6287688;20;2500383;-62
2023/05/02 06:04:47;;;;;;;;;17.00;16.67;;;;;16.26;62.75;99780.81;6284129;20;3569050;-62
2023/05/02 06:07:15;;;;;;;;;17.00;16.00;;;;;16.09;62.38;99773.22;6282722;20;3553418;-62
2023/05/02 06:09:42;;;;;;;;;17.00;17.00;;;;;15.79;64.21;99772.06;6282555;20;2491987;-61
2023/05/02 06:12:11;;;;;;;;;21.00;17.50;;;;;15.34;65.38;99782.88;6286489;20;2836840;-61
2023/05/02 06:14:38;;;;;;;;;14.50;14.50;;;;;15.11;66.53;99780.19;6282705;20;2494046;-62
2023/05/02 06:17:06;;;;;;;;;15.67;15.00;;;;;15.69;65.52;99771.09;6289736;20;2816975;-62
2023/05/02 06:19:33;;;;;;;;;19.00;17.00;;;;;16.13;63.76;99775.56;6314479;20;2487933;-62
2023/05/02 06:22:01;;;;;;;;;13.00;13.00;;;;;15.85;64.57;99771.59;6285182;20;3535693;-62
2023/05/02 06:24:30;;;;;;;;;14.33;14.33;;;;;16.19;63.57;99775.06;6286024;20;3534727;-62
2023/05/02 06:26:58;;;;;;;;;14.67;14.67;;;;;16.51;61.95;99778.72;6280743;20;3527353;-62
2023/05/02 06:29:27;;;;;;;;;18.33;16.00;;;;;16.04;63.35;99775.47;6284686;20;3556284;-62
2023/05/02 06:31:55;;;;;;;;;11.00;11.00;;;;;16.27;61.58;99771.69;6289765;20;2789884;-62
2023/05/02 06:34:23;;;;;;;;;14.00;13.00;;;;;16.34;62.41;99777.47;6286821;20;2485838;-62
2023/05/02 06:36:57;;;;;;;;;16.33;16.33;;;;;17.11;58.79;99777.19;6282426;20;3557581;-62
2023/05/02 06:39:25;;;;;;;;;17.50;15.00;;;;;19.80;52.22;99793.13;6286931;20;2496186;-62
2023/05/02 06:42:00;;;;;;;;;12.67;12.67;;;;;22.89;43.15;99803.53;6281954;20;3528386;-62
2023/05/02 06:44:28;;;;;;;;;11.67;11.67;;;;;24.88;36.78;99809.88;6285576;20;3535709;-62
2023/05/02 06:46:56;;;;;;;;;13.00;12.00;;;;;20.55;45.43;99807.47;6283081;20;2809714;-62
2023/05/02 06:49:25;;;;;;;;;12.00;12.00;;;;;24.06;39.37;99809.50;6315300;20;2483622;-62
2023/05/02 06:51:53;;;;;;;;;11.33;10.00;;;;;25.29;36.70;99809.53;6284036;20;3503401;-62
2023/05/02 06:54:21;;;;;;;;;12.67;11.33;;;;;23.04;41.82;99805.63;6320958;20;2798185;-62
2023/05/02 06:56:49;;;;;;;;;14.00;12.00;;;;;20.83;44.51;99798.19;6313361;20;2483656;-62
2023/05/02 06:59:17;;;;;;;;;15.67;13.67;;;;;19.53;49.59;99792.91;6313093;20;3535819;-62
2023/05/02 07:01:46;;;;;;;;;14.00;14.00;;;;;20.11;48.10;99799.13;6286618;20;2795211;-61
2023/05/02 07:04:13;;;;;;;;;17.00;14.00;;;;;20.82;47.60;99796.44;6314151;20;2483640;-62
2023/05/02 07:06:41;;;;;;;;;13.00;13.00;;;;;21.44;45.37;99801.03;6281430;20;3521269;-62
2023/05/02 07:09:09;;;;;;;;;10.00;10.00;;;;;20.80;44.81;99800.34;6311725;20;3512779;-63
2023/05/02 07:11:38;;;;;;;;;12.00;11.00;;;;;20.47;47.43;99791.00;6315323;20;2799414;-63
2023/05/02 07:14:06;;;;;;;;;13.00;13.00;;;;;18.84;51.20;99802.25;6284062;20;3523219;-62
2023/05/02 07:16:35;;;;;;;;;10.40;10.00;;;;;19.49;49.73;99796.97;6338037;20;2791003;-63
2023/05/02 07:19:05;;;;;;;;;11.20;11.20;;;;;20.32;48.99;99796.13;6305924;20;2796118;-63
2023/05/02 07:21:33;;;;;;;;;13.00;12.00;;;;;19.26;51.22;99795.59;6283391;20;3519021;-63
2023/05/02 07:24:01;;;;;;;;;11.00;10.00;;;;;20.42;48.35;99801.50;6286476;20;2781679;-62
2023/05/02 07:26:29;;;;;;;;;12.00;11.00;;;;;20.96;49.17;99805.13;6280902;20;3509762;-62
2023/05/02 07:28:57;;;;;;;;;11.67;11.67;;;;;21.19;48.94;99806.28;6284420;20;3517084;-62
2023/05/02 07:31:25;;;;;;;;;10.67;10.67;;;;;21.04;47.34;99796.97;6312483;20;3515033;-63
2023/05/02 07:33:53;;;;;;;;;13.33;13.33;;;;;20.78;47.30;99816.91;6285749;20;2483627;-63
2023/05/02 07:36:22;;;;;;;;;12.00;12.00;;;;;20.04;47.10;99819.84;6311970;20;3534655;-62
2023/05/02 07:38:49;;;;;;;;;10.50;9.00;;;;;19.01;50.70;99808.84;6292883;20;2768093;-63
2023/05/02 07:41:16;;;;;;;;;10.00;10.00;;;;;19.38;48.93;99805.31;6291765;20;2791170;-61
2023/05/02 07:43:44;;;;;;;;;12.33;12.33;;;;;19.46;49.71;99805.44;6285729;20;3526349;-62
2023/05/02 07:46:12;;;;;;;;;11.67;11.67;;;;;20.23;49.03;99806.09;6312839;20;3533707;-62
2023/05/02 07:48:41;;;;;;;;;13.00;13.00;;;;;20.75;48.47;99810.91;6286287;20;2483819;-63
2023/05/02 07:51:10;;;;;;;;;13.67;11.00;;;;;19.76;48.79;99814.38;6319463;20;2795310;-62
2023/05/02 07:53:38;;;;;;;;;13.33;11.67;;;;;19.80;49.92;99821.25;6315247;20;2483754;-61
2023/05/02 07:56:07;;;;;;;;;13.00;11.67;;;;;19.65;49.61;99818.13;6313337;20;3535770;-62
2023/05/02 07:58:38;;;;;;;;;9.00;9.00;;;;;18.64;50.69;99811.41;6290353;20;2763975;-62
2023/05/02 08:01:07;;;;;;;;;9.20;9.20;;;;;18.48;51.71;99814.69;6310546;20;2750347;-61
2023/05/02 08:03:34;;;;;;;;;12.00;10.50;;;;;18.25;53.47;99814.09;6288594;20;2789895;-61
2023/05/02 08:06:03;;;;;;;;;48.67;38.33;;;;;18.18;53.71;99811.06;6285849;20;3607540;-63
2023/05/02 08:08:31;;;;;;;;;18.33;15.00;;;;;18.21;53.68;99816.22;6281996;20;3554501;-62
2023/05/02 08:10:59;;;;;;;;;13.67;12.67;;;;;17.68;53.96;99813.75;6281987;20;3535738;-62
2023/05/02 08:13:28;;;;;;;;;48.00;40.00;;;;;17.98;53.82;99810.19;6284462;20;3607592;-62
2023/05/02 08:15:57;;;;;;;;;14.00;14.00;;;;;18.14;54.73;99809.66;6282471;20;3533632;-62
2023/05/02 08:18:25;;;;;;;;;16.00;13.00;;;;;18.18;53.63;99818.38;6314147;20;2491994;-61
2023/05/02 08:20:57;;;;;;;;;18.33;17.00;;;;;17.89;54.29;99811.00;6284700;20;3559644;-62
2023/05/02 08:23:25;;;;;;;;;11.50;11.50;;;;;18.12;53.33;99817.09;6282090;20;3450254;-62
2023/05/02 08:25:53;;;;;;;;;13.33;13.33;;;;;19.46;50.11;99816.34;6312027;20;3523195;-62
2023/05/02 08:28:21;;;;;;;;;13.00;11.00;;;;;19.89;48.98;99825.78;6285518;20;2792040;-62
2023/05/02 08:30:48;;;;;;;;;10.00;8.50;;;;;19.80;49.17;99825.81;6287601;20;2767003;-62
2023/05/02 08:33:15;;;;;;;;;13.50;13.00;;;;;20.25;49.60;99820.44;6285844;20;2789915;-62
2023/05/02 08:35:43;;;;;;;;;15.00;15.00;;;;;19.81;48.40;99820.22;6282048;20;2487965;-62
2023/05/02 08:38:10;;;;;;;;;13.00;11.00;;;;;19.51;49.54;99824.91;6285746;20;2494051;-62
2023/05/02 08:40:38;;;;;;;;;14.00;14.00;;;;;19.31;51.18;99820.53;6283311;20;3528438;-62
2023/05/02 08:43:11;;;;;;;;;10.00;9.00;;;;;19.74;49.98;99822.69;6284971;20;2762786;-61
2023/05/02 08:45:43;;;;;;;;;11.67;11.00;;;;;19.43;50.87;99823.91;6318209;20;3513904;-62
2023/05/02 08:48:15;;;;;;;;;13.50;12.50;;;;;19.40;51.34;99819.63;6320885;20;2800375;-62
2023/05/02 08:50:46;;;;;;;;;11.67;10.00;;;;;19.73;49.86;99815.53;6288660;20;2783726;-61
2023/05/02 08:53:17;;;;;;;;;13.67;13.67;;;;;19.39;51.42;99826.09;6317788;20;3533641;-62
2023/05/02 08:55:47;;;;;;;;;14.33;14.33;;;;;19.84;48.36;99816.34;6284304;20;3527464;-61
2023/05/02 08:58:15;;;;;;;;;9.00;9.00;;;;;19.56;49.68;99820.88;6286555;20;2756528;-62
2023/05/02 09:00:47;;;;;;;;;11.67;11.00;;;;;19.55;49.28;99811.00;6315098;20;3524223;-62
2023/05/02 09:03:34;;;;;;;;;21.50;17.00;;;;;19.95;48.10;99810.69;6314779;20;2842067;-62
2023/05/02 09:06:19;;;;;;;;;12.67;11.67;;;;;20.38;49.35;99810.00;6287511;20;3510679;-62
2023/05/02 09:08:51;;;;;;;;;12.67;10.33;;;;;19.77;46.52;99815.22;6317626;20;3517021;-63
2023/05/02 09:11:21;;;;;;;;;10.60;8.40;;;;;19.56;47.97;99819.00;6341155;20;2764875;-61
2023/05/02 09:13:51;;;;;;;;;13.00;12.00;;;;;19.97;48.23;99810.56;6284541;20;3527390;-61
2023/05/02 09:16:21;;;;;;;;;14.00;13.00;;;;;19.56;49.68;99820.88;6287264;20;2811835;-62
2023/05/02 09:18:52;;;;;;;;;13.00;13.00;;;;;19.76;47.62;99811.66;6319257;20;2680510;-61
2023/05/02 09:21:25;;;;;;;;;10.67;10.67;;;;;19.99;49.59;99808.53;6293037;20;2790916;-61
2023/05/02 09:24:02;;;;;;;;;17.00;12.33;;;;;19.88;50.65;99817.75;6316695;20;3553510;-60
2023/05/02 09:26:33;;;;;;;;;6.50;6.50;;;;;20.00;47.24;99810.25;6360779;20;1796314;-61
2023/05/02 09:29:04;;;;;;;;;12.33;11.00;;;;;20.01;48.62;99809.22;6322268;20;2802774;-60
2023/05/02 09:31:38;;;;;;;;;15.33;14.33;;;;;19.94;47.32;99812.56;6320791;20;3532651;-61
2023/05/02 09:34:15;;;;;;;;;10.00;10.00;;;;;20.01;47.73;99812.84;6321139;20;2794094;-60
2023/05/02 09:36:50;;;;;;;;;14.67;13.00;;;;;20.46;47.30;99811.97;6314773;20;3528448;-61
2023/05/02 09:39:36;;;;;;;;;10.67;10.67;;;;;20.15;47.15;99811.44;6284964;20;3519165;-61
2023/05/02 09:42:05;;;;;;;;;14.33;12.33;;;;;20.14;47.80;99813.31;6315041;20;3519457;-61
2023/05/02 09:44:38;;;;;;;;;11.33;10.67;;;;;20.79;46.99;99807.69;6319514;20;3507542;-61
2023/05/02 09:47:07;;;;;;;;;10.00;10.00;;;;;21.39;45.74;99811.59;6319527;20;2789870;-61
2023/05/02 09:49:43;;;;;;;;;10.00;10.00;;;;;22.93;43.51;99815.88;6318168;20;3504466;-62
2023/05/02 09:52:16;;;;;;;;;8.20;8.20;;;;;22.52;42.53;99809.50;6341856;20;2754475;-63
2023/05/02 09:54:49;;;;;;;;;11.00;10.00;;;;;22.18;41.84;99806.84;6288704;20;2788964;-63
2023/05/02 09:57:17;;;;;;;;;9.67;8.33;;;;;22.63;43.10;99806.44;6323767;20;2754495;-63
2023/05/02 09:59:56;;;;;;;;;12.00;10.33;;;;;22.61;42.78;99797.53;6317499;20;3512842;-63
2023/05/02 10:02:25;;;;;;;;;9.00;9.00;;;;;22.26;43.02;99801.41;6315522;20;3473177;-63
2023/05/02 10:04:57;;;;;;;;;7.00;7.00;;;;;22.27;42.99;99792.16;6316295;20;2746129;-63
2023/05/02 10:07:26;;;;;;;;;9.33;9.33;;;;;22.29;43.84;99796.44;6320507;20;2775369;-63
2023/05/02 10:09:58;;;;;;;;;9.67;9.67;;;;;21.70;43.95;99790.06;6315517;20;3491961;-63
2023/05/02 10:12:29;;;;;;;;;10.33;10.33;;;;;22.86;44.54;99792.09;6317444;20;3510689;-63
2023/05/02 10:15:02;;;;;;;;;9.67;9.67;;;;;22.76;43.68;99786.78;6281092;20;2776552;-63
2023/05/02 10:17:41;;;;;;;;;9.00;9.00;;;;;22.77;41.49;99789.31;6338878;20;2754930;-63
2023/05/02 10:20:15;;;;;;;;;13.00;11.67;;;;;22.89;41.32;99784.38;6283023;20;3516044;-63
2023/05/02 10:22:46;;;;;;;;;10.00;10.00;;;;;23.20;41.21;99781.81;6320402;20;2779462;-63
2023/05/02 10:25:15;;;;;;;;;15.00;10.33;;;;;23.38;40.53;99778.88;6315672;20;2491897;-63
2023/05/02 10:27:44;;;;;;;;;8.60;7.40;;;;;23.61;41.76;99775.38;6342270;20;2752440;-62
2023/05/02 10:30:13;;;;;;;;;8.60;7.40;;;;;23.58;40.91;99771.09;6314885;20;2742994;-62
2023/05/02 10:32:46;;;;;;;;;11.33;8.67;;;;;24.51;40.14;99764.84;6318400;20;2767060;-62
2023/05/02 10:35:15;;;;;;;;;12.33;9.33;;;;;24.30;38.38;99754.50;6316629;20;2778462;-61
2023/05/02 10:37:45;;;;;;;;;11.00;11.00;;;;;24.25;40.18;99750.56;6324299;20;2797175;-61
2023/05/02 10:40:14;;;;;;;;;8.20;8.20;;;;;24.36;39.29;99744.69;6340205;20;2741956;-62
2023/05/02 10:42:46;;;;;;;;;10.00;7.00;;;;;24.36;37.14;99749.31;6284984;20;2769044;-61
2023/05/02 10:45:30;;;;;;;;;7.67;7.00;;;;;25.11;37.85;99752.13;6312255;20;2754453;-62
2023/05/02 10:48:21;;;;;;;;;9.00;9.00;;;;;24.55;39.24;99751.59;6319286;20;2752390;-61
2023/05/02 10:50:57;;;;;;;;;6.67;6.67;;;;;24.60;39.84;99738.19;6320099;20;2733714;-61
2023/05/02 10:53:35;;;;;;;;;7.00;7.00;;;;;25.16;37.19;99738.72;6315168;20;2745096;-60
2023/05/02 10:56:21;;;;;;;;;7.80;6.20;;;;;24.73;36.76;99745.81;6341594;20;2748249;-61
2023/05/02 10:58:52;;;;;;;;;10.00;9.00;;;;;24.78;36.43;99746.09;6293750;20;2765969;-62
2023/05/02 11:01:27;;;;;;;;;7.40;7.40;;;;;25.17;37.04;99745.94;6340064;20;2747157;-62
2023/05/02 11:04:10;;;;;;;;;9.20;6.20;;;;;24.99;35.39;99748.16;6307720;20;2753407;-59
2023/05/02 11:06:58;;;;;;;;;7.00;7.00;;;;;24.57;36.05;99743.19;6284194;20;2734088;-58
2023/05/02 11:09:31;;;;;;;;;7.67;7.67;;;;;25.57;37.19;99735.53;6315795;20;2740892;-59
2023/05/02 11:12:00;;;;;;;;;9.00;8.00;;;;;25.66;35.98;99743.66;6317128;20;2749295;-59
2023/05/02 11:14:38;;;;;;;;;7.00;7.00;;;;;25.56;35.76;99746.69;6312588;20;2735902;-61
2023/05/02 11:17:08;;;;;;;;;6.80;6.80;;;;;25.68;34.72;99730.59;6340250;20;2752367;-61
2023/05/02 11:19:37;;;;;;;;;8.00;7.40;;;;;25.58;35.48;99733.63;6308728;20;2751479;-60
2023/05/02 11:22:22;;;;;;;;;7.00;7.00;;;;;25.31;35.05;99729.66;6286065;20;2744093;-60
2023/05/02 11:24:50;;;;;;;;;8.00;8.00;;;;;24.69;36.43;99733.47;6317472;20;2744148;-61
2023/05/02 11:27:36;;;;;;;;;6.67;6.67;;;;;24.53;37.17;99737.19;6325983;20;2729496;-60